createdAt,value
2022-11-22T00:00:01.010Z,-2.4
2022-11-22T00:10:01.247Z,-2.3
2022-11-22T00:20:01.477Z,-2.5
2022-11-22T00:30:01.006Z,-2.5
2022-11-22T00:40:00.171Z,-2.6
2022-11-22T00:50:00.998Z,-2.6
2022-11-22T01:00:01.002Z,-2.5
2022-11-22T01:10:01.199Z,-2.5
2022-11-22T01:20:01.040Z,-2.5
2022-11-22T01:30:01.024Z,-2.5
2022-11-22T01:40:00.150Z,-2.4
2022-11-22T01:50:01.105Z,-2.5
2022-11-22T02:00:00.157Z,-2.5
2022-11-22T02:10:00.179Z,-2.6
2022-11-22T02:20:00.167Z,-2.5
2022-11-22T02:30:01.250Z,-2.6
2022-11-22T02:40:00.164Z,-2.6
2022-11-22T02:50:00.138Z,-2.5
2022-11-22T03:00:01.040Z,-2.3
2022-11-22T03:10:02.120Z,-2.3
2022-11-22T03:20:01.307Z,-2.5
2022-11-22T03:30:00.109Z,-2.5
2022-11-22T03:40:01.318Z,-2.6
2022-11-22T03:50:00.126Z,-2.6
2022-11-22T04:00:00.285Z,-2.6
2022-11-22T04:10:00.125Z,-2.6
2022-11-22T04:20:01.036Z,-2.5
2022-11-22T04:30:00.128Z,-2.4
2022-11-22T04:40:00.143Z,-2.5
2022-11-22T04:50:00.116Z,-2.4
2022-11-22T05:00:01.045Z,-2.4
2022-11-22T05:10:00.114Z,-2.3
2022-11-22T05:20:00.995Z,-2.2
2022-11-22T05:30:01.025Z,-2.1
2022-11-22T05:40:01.037Z,-2.0
2022-11-22T05:50:01.850Z,-1.9
2022-11-22T06:00:01.471Z,-1.8
2022-11-22T06:10:01.015Z,-1.9
2022-11-22T06:20:06.011Z,-1.7
2022-11-22T06:30:01.043Z,-1.7
2022-11-22T06:40:00.195Z,-1.6
2022-11-22T06:50:01.440Z,-1.3
2022-11-22T07:00:00.139Z,-1.5
2022-11-22T07:10:01.244Z,-1.4
2022-11-22T07:20:01.283Z,-1.3
2022-11-22T07:30:02.138Z,-1.2
2022-11-22T07:40:01.094Z,-1.3
2022-11-22T07:50:00.149Z,-1.2
2022-11-22T08:00:01.340Z,-1.3
2022-11-22T08:10:01.284Z,-1.2
2022-11-22T08:20:00.265Z,-1.2
2022-11-22T08:30:01.117Z,-1.0
2022-11-22T08:40:01.121Z,-1.0
2022-11-22T08:50:01.315Z,-0.8
2022-11-22T09:00:02.268Z,-0.7
2022-11-22T09:10:01.581Z,-0.8
2022-11-22T09:30:01.655Z,-0.6
2022-11-22T09:40:01.178Z,-0.4
2022-11-22T09:50:00.148Z,-0.2
2022-11-22T10:00:01.443Z,-0.1
2022-11-22T10:10:01.586Z,-0.1
2022-11-22T10:20:02.915Z,0.2
2022-11-22T10:30:01.209Z,0.3
2022-11-22T10:40:01.641Z,0.3
2022-11-22T10:50:02.241Z,0.4
2022-11-22T11:00:01.331Z,0.5
2022-11-22T11:10:23.756Z,0.7
2022-11-22T11:20:02.611Z,0.8
2022-11-22T11:30:02.367Z,1.0
2022-11-22T11:40:01.174Z,1.1
2022-11-22T11:50:02.486Z,1.1
2022-11-22T12:00:01.697Z,1.0
2022-11-22T12:10:02.157Z,1.0
2022-11-22T12:30:01.511Z,1.4
2022-11-22T12:40:02.043Z,1.3
2022-11-22T12:50:01.048Z,1.3
2022-11-22T13:10:01.006Z,1.4
2022-11-22T13:20:01.451Z,1.3
2022-11-22T13:30:02.820Z,1.3
2022-11-22T13:50:01.606Z,1.5
2022-11-22T14:00:01.187Z,1.6
2022-11-22T14:10:00.140Z,1.5
2022-11-22T14:20:01.330Z,1.5
2022-11-22T14:30:01.028Z,1.6
2022-11-22T14:40:01.351Z,2.0
2022-11-22T14:50:01.502Z,1.5
2022-11-22T15:00:01.639Z,1.7
2022-11-22T15:10:01.745Z,1.7
2022-11-22T16:00:01.645Z,1.7
2022-11-22T16:10:01.295Z,1.7
2022-11-22T16:20:00.268Z,1.5
2022-11-22T16:30:01.235Z,1.6
2022-11-22T16:50:01.335Z,1.6
2022-11-22T17:10:02.158Z,1.5
2022-11-22T17:30:01.761Z,1.6
2022-11-22T17:50:01.029Z,1.6
2022-11-22T18:00:01.236Z,1.8
2022-11-22T18:10:01.183Z,1.7
2022-11-22T18:20:03.519Z,1.7
2022-11-22T18:30:01.292Z,1.7
2022-11-22T18:40:01.531Z,1.8
2022-11-22T18:50:02.688Z,1.7
2022-11-22T19:00:04.577Z,1.7
2022-11-22T19:10:01.260Z,1.7
2022-11-22T19:20:01.358Z,1.7
2022-11-22T19:30:03.144Z,1.7
2022-11-22T19:40:01.260Z,1.7
2022-11-22T19:50:01.485Z,1.7
2022-11-22T20:10:01.231Z,1.9
2022-11-22T20:30:01.253Z,1.9
2022-11-22T20:40:01.542Z,1.9
2022-11-22T20:50:02.090Z,1.9
2022-11-22T21:10:01.016Z,1.9
2022-11-22T21:20:01.137Z,1.8
2022-11-22T21:30:01.063Z,1.9
2022-11-22T21:40:01.626Z,1.7
2022-11-22T21:50:01.105Z,1.6
2022-11-22T22:10:01.526Z,1.6
2022-11-22T22:20:01.438Z,1.5
2022-11-22T22:30:02.458Z,1.3
2022-11-22T22:40:02.690Z,1.3
2022-11-22T22:50:01.464Z,1.2
2022-11-22T23:00:02.331Z,1.0
2022-11-22T23:10:01.313Z,1.1
2022-11-22T23:20:01.648Z,1.0
2022-11-22T23:30:00.153Z,0.9
2022-11-22T23:40:01.109Z,0.9
2022-11-22T23:50:00.996Z,0.9
